createdAt,value
2019-03-15T00:00:21.255Z,931.32
2019-03-15T00:01:21.151Z,931.28
2019-03-15T00:02:21.047Z,931.37
2019-03-15T00:03:21.111Z,931.38
2019-03-15T00:04:20.875Z,931.40
2019-03-15T00:05:20.747Z,931.42
2019-03-15T00:06:20.652Z,931.44
2019-03-15T00:07:20.549Z,931.44
2019-03-15T00:08:20.446Z,931.44
2019-03-15T00:09:20.364Z,931.48
2019-03-15T00:10:20.244Z,931.37
2019-03-15T00:11:20.148Z,931.49
2019-03-15T00:12:20.045Z,931.55
2019-03-15T00:13:19.940Z,931.55
2019-03-15T00:14:19.854Z,931.55
2019-03-15T00:15:19.820Z,931.54
2019-03-15T00:16:19.637Z,931.57
2019-03-15T00:17:19.540Z,931.62
2019-03-15T00:18:19.436Z,931.65
2019-03-15T00:19:19.353Z,931.62
2019-03-15T00:20:19.234Z,931.65
2019-03-15T00:21:19.137Z,931.74
2019-03-15T00:22:19.031Z,931.71
2019-03-15T00:23:18.933Z,931.72
2019-03-15T00:24:19.276Z,931.74
2019-03-15T00:25:18.731Z,931.73
2019-03-15T00:26:18.636Z,931.70
2019-03-15T00:27:18.530Z,931.78
2019-03-15T00:28:18.427Z,931.72
2019-03-15T00:29:18.381Z,931.73
2019-03-15T00:30:18.225Z,931.70
2019-03-15T00:31:18.126Z,931.71
2019-03-15T00:32:18.040Z,931.76
2019-03-15T00:33:17.922Z,931.79
2019-03-15T00:34:17.837Z,931.72
2019-03-15T00:35:17.725Z,931.85
2019-03-15T00:36:17.625Z,931.80
2019-03-15T00:37:17.517Z,931.76
2019-03-15T00:38:17.419Z,931.76
2019-03-15T00:39:17.333Z,931.73
2019-03-15T00:40:17.219Z,931.81
2019-03-15T00:41:17.115Z,931.80
2019-03-15T00:42:17.013Z,931.82
2019-03-15T00:43:16.916Z,931.83
2019-03-15T00:44:16.818Z,931.83
2019-03-15T00:45:16.727Z,931.90
2019-03-15T00:46:16.609Z,932.00
2019-03-15T00:47:17.391Z,931.99
2019-03-15T00:48:16.413Z,932.01
2019-03-15T00:49:16.311Z,931.95
2019-03-15T00:50:19.306Z,932.01
2019-03-15T00:51:16.105Z,932.04
2019-03-15T00:52:16.006Z,932.05
2019-03-15T00:53:15.906Z,932.04
2019-03-15T00:54:15.812Z,932.00
2019-03-15T00:55:15.720Z,931.97
2019-03-15T00:56:15.600Z,932.08
2019-03-15T00:57:15.498Z,932.02
2019-03-15T00:58:15.502Z,932.12
2019-03-15T00:59:15.314Z,932.17
2019-03-15T01:00:15.219Z,932.17
2019-03-15T01:01:15.098Z,932.19
2019-03-15T01:02:14.994Z,932.26
2019-03-15T01:03:15.040Z,932.19
2019-03-15T01:04:14.792Z,932.20
2019-03-15T01:05:14.711Z,932.19
2019-03-15T01:06:14.590Z,932.19
2019-03-15T01:07:14.491Z,932.18
2019-03-15T01:08:14.388Z,932.18
2019-03-15T01:09:14.286Z,932.30
2019-03-15T01:10:14.204Z,932.26
2019-03-15T01:11:14.086Z,932.32
2019-03-15T01:12:14.089Z,932.30
2019-03-15T01:13:13.890Z,932.32
2019-03-15T01:14:13.781Z,932.39
2019-03-15T01:15:13.703Z,932.34
2019-03-15T01:16:13.580Z,932.40
2019-03-15T01:17:13.478Z,932.37
2019-03-15T01:18:13.389Z,932.40
2019-03-15T01:19:13.399Z,932.44
2019-03-15T01:20:13.195Z,932.40
2019-03-15T01:21:13.076Z,932.45
2019-03-15T01:22:12.973Z,932.47
2019-03-15T01:23:12.876Z,932.33
2019-03-15T01:24:12.771Z,932.44
2019-03-15T01:25:12.683Z,932.43
2019-03-15T01:26:12.672Z,932.45
2019-03-15T01:27:12.470Z,932.44
2019-03-15T01:28:12.370Z,932.45
2019-03-15T01:29:12.265Z,932.47
2019-03-15T01:30:12.182Z,932.52
2019-03-15T01:31:12.062Z,932.57
2019-03-15T01:32:12.032Z,932.53
2019-03-15T01:33:11.970Z,932.54
2019-03-15T01:34:11.760Z,932.58
2019-03-15T01:35:11.679Z,932.55
2019-03-15T01:36:11.558Z,932.60
2019-03-15T01:37:11.456Z,932.57
2019-03-15T01:38:11.355Z,932.63
2019-03-15T01:39:11.256Z,932.57
2019-03-15T01:40:11.273Z,932.60
2019-03-15T01:41:11.054Z,932.62
2019-03-15T01:42:10.950Z,932.55
2019-03-15T01:43:10.853Z,932.55
2019-03-15T01:44:10.751Z,932.56
2019-03-15T01:45:10.665Z,932.65
2019-03-15T01:46:10.560Z,932.60
2019-03-15T01:47:10.549Z,932.61
2019-03-15T01:48:10.346Z,932.65
2019-03-15T01:49:10.242Z,932.61
2019-03-15T01:50:10.159Z,932.64
2019-03-15T01:51:10.041Z,932.63
2019-03-15T01:52:09.942Z,932.66
2019-03-15T01:53:09.839Z,932.73
2019-03-15T01:54:09.842Z,932.75
2019-03-15T01:55:09.656Z,932.69
2019-03-15T01:56:09.612Z,932.75
2019-03-15T01:57:09.436Z,932.73
2019-03-15T01:58:09.333Z,932.80
2019-03-15T01:59:09.232Z,932.71
2019-03-15T02:00:09.149Z,932.79
2019-03-15T02:01:09.140Z,932.82
2019-03-15T02:02:08.931Z,932.79
2019-03-15T02:03:08.834Z,932.76
2019-03-15T02:04:08.731Z,932.80
2019-03-15T02:05:08.644Z,932.81
2019-03-15T02:06:08.527Z,932.81
2019-03-15T02:07:09.273Z,932.85
2019-03-15T02:08:08.326Z,932.76
2019-03-15T02:09:09.437Z,932.82
2019-03-15T02:10:08.138Z,932.87
2019-03-15T02:11:08.025Z,932.92
2019-03-15T02:12:07.927Z,932.91
2019-03-15T02:13:07.819Z,932.99
2019-03-15T02:14:07.717Z,933.01
2019-03-15T02:15:07.731Z,933.00
2019-03-15T02:16:07.623Z,933.03
2019-03-15T02:17:07.419Z,933.04
2019-03-15T02:18:07.312Z,933.01
2019-03-15T02:19:07.211Z,933.05
2019-03-15T02:20:07.118Z,933.08
2019-03-15T02:21:07.024Z,933.08
2019-03-15T02:22:07.013Z,933.09
2019-03-15T02:23:06.847Z,933.13
2019-03-15T02:24:06.707Z,933.15
2019-03-15T02:25:06.608Z,933.14
2019-03-15T02:26:06.521Z,933.18
2019-03-15T02:27:06.412Z,933.20
2019-03-15T02:28:06.442Z,933.20
2019-03-15T02:29:06.204Z,933.21
2019-03-15T02:30:06.122Z,933.17
2019-03-15T02:31:06.023Z,933.19
2019-03-15T02:32:05.900Z,933.24
2019-03-15T02:33:06.194Z,933.28
2019-03-15T02:34:05.699Z,933.23
2019-03-15T02:35:05.636Z,933.27
2019-03-15T02:36:05.513Z,933.23
2019-03-15T02:37:06.857Z,933.22
2019-03-15T02:38:05.299Z,933.25
2019-03-15T02:39:05.193Z,933.26
2019-03-15T02:40:05.095Z,933.26
2019-03-15T02:41:05.361Z,933.22
2019-03-15T02:42:05.019Z,933.23
2019-03-15T02:43:04.790Z,933.28
2019-03-15T02:44:04.689Z,933.23
2019-03-15T02:45:06.222Z,933.20
2019-03-15T02:46:04.502Z,933.26
2019-03-15T02:47:04.388Z,933.20
2019-03-15T02:48:04.287Z,933.24
2019-03-15T02:49:04.188Z,933.29
2019-03-15T02:50:04.083Z,933.28
2019-03-15T02:51:04.011Z,933.19
2019-03-15T02:52:03.880Z,933.23
2019-03-15T02:53:03.785Z,933.17
2019-03-15T02:54:03.697Z,933.22
2019-03-15T02:55:03.577Z,933.19
2019-03-15T02:56:03.495Z,933.20
2019-03-15T02:57:03.377Z,933.20
2019-03-15T02:58:03.279Z,933.20
2019-03-15T02:59:03.172Z,933.23
2019-03-15T03:00:03.074Z,933.25
2019-03-15T03:01:02.990Z,933.25
2019-03-15T03:02:02.871Z,933.27
2019-03-15T03:03:02.772Z,933.29
2019-03-15T03:04:02.673Z,933.28
2019-03-15T03:05:02.567Z,933.24
2019-03-15T03:06:02.526Z,933.28
2019-03-15T03:07:02.369Z,933.35
2019-03-15T03:08:02.269Z,933.30
2019-03-15T03:09:02.165Z,933.38
2019-03-15T03:10:02.477Z,933.34
2019-03-15T03:11:01.982Z,933.43
2019-03-15T03:12:01.860Z,933.43
2019-03-15T03:13:01.759Z,933.45
2019-03-15T03:14:01.664Z,933.50
2019-03-15T03:15:01.560Z,933.49
2019-03-15T03:16:01.476Z,933.53
2019-03-15T03:17:01.357Z,933.53
2019-03-15T03:18:01.405Z,933.50
2019-03-15T03:19:01.478Z,933.53
2019-03-15T03:20:01.055Z,933.52
2019-03-15T03:21:00.971Z,933.56
2019-03-15T03:22:00.850Z,933.64
2019-03-15T03:23:00.755Z,933.57
2019-03-15T03:24:00.646Z,933.64
2019-03-15T03:25:00.563Z,933.67
2019-03-15T03:26:00.464Z,933.69
2019-03-15T03:27:00.346Z,933.67
2019-03-15T03:28:01.268Z,933.63
2019-03-15T03:29:00.141Z,933.63
2019-03-15T03:30:00.052Z,933.70
2019-03-15T03:30:59.958Z,933.67
2019-03-15T03:31:59.859Z,933.68
2019-03-15T03:32:59.737Z,933.73
2019-03-15T03:33:59.652Z,933.65
2019-03-15T03:34:59.561Z,933.61
2019-03-15T03:36:00.526Z,933.66
2019-03-15T03:36:59.340Z,933.64
2019-03-15T03:37:59.231Z,933.67
2019-03-15T03:38:59.132Z,933.68
2019-03-15T03:39:59.035Z,933.69
2019-03-15T03:40:58.947Z,933.74
2019-03-15T03:41:58.831Z,933.78
2019-03-15T03:42:58.735Z,933.75
2019-03-15T03:43:58.631Z,933.74
2019-03-15T03:44:58.527Z,933.79
2019-03-15T03:45:58.438Z,933.76
2019-03-15T03:46:58.321Z,933.78
2019-03-15T03:47:58.227Z,933.77
2019-03-15T03:48:58.118Z,933.72
2019-03-15T03:49:58.018Z,933.80
2019-03-15T03:51:00.033Z,933.80
2019-03-15T03:51:57.815Z,933.72
2019-03-15T03:52:57.715Z,933.79
2019-03-15T03:53:57.613Z,933.79
2019-03-15T03:54:57.722Z,933.72
2019-03-15T03:55:57.413Z,933.77
2019-03-15T03:56:57.410Z,933.81
2019-03-15T03:57:57.211Z,933.72
2019-03-15T03:58:57.110Z,933.74
2019-03-15T03:59:57.109Z,933.79
2019-03-15T04:00:56.920Z,933.51
2019-03-15T04:01:56.804Z,933.66
2019-03-15T04:02:56.707Z,933.70
2019-03-15T04:03:56.604Z,933.66
2019-03-15T04:04:56.501Z,933.76
2019-03-15T04:05:56.401Z,933.66
2019-03-15T04:06:56.417Z,933.64
2019-03-15T04:07:56.196Z,933.73
2019-03-15T04:08:56.097Z,933.72
2019-03-15T04:09:55.994Z,933.74
2019-03-15T04:10:56.296Z,933.77
2019-03-15T04:11:56.399Z,933.80
2019-03-15T04:12:55.689Z,933.74
2019-03-15T04:13:55.693Z,933.69
2019-03-15T04:14:55.491Z,933.75
2019-03-15T04:15:55.389Z,933.83
2019-03-15T04:16:55.304Z,933.85
2019-03-15T04:17:55.185Z,933.86
2019-03-15T04:18:55.083Z,933.81
2019-03-15T04:19:54.981Z,933.93
2019-03-15T04:20:54.985Z,933.95
2019-03-15T04:21:54.799Z,934.01
2019-03-15T04:22:55.489Z,934.10
2019-03-15T04:23:54.579Z,934.00
2019-03-15T04:24:54.480Z,934.06
2019-03-15T04:25:54.376Z,934.05
2019-03-15T04:26:54.288Z,934.07
2019-03-15T04:27:54.294Z,934.01
2019-03-15T04:28:56.830Z,933.92
2019-03-15T04:29:53.998Z,934.00
2019-03-15T04:30:53.866Z,934.03
2019-03-15T04:31:53.786Z,934.01
2019-03-15T04:32:53.662Z,934.06
2019-03-15T04:33:53.562Z,934.09
2019-03-15T04:34:53.566Z,934.08
2019-03-15T04:35:53.363Z,934.12
2019-03-15T04:36:53.279Z,934.15
2019-03-15T04:37:53.159Z,934.21
2019-03-15T04:38:53.055Z,934.17
2019-03-15T04:39:52.956Z,934.23
2019-03-15T04:40:52.854Z,934.21
2019-03-15T04:41:52.879Z,934.18
2019-03-15T04:42:52.650Z,934.14
2019-03-15T04:43:52.553Z,934.02
2019-03-15T04:44:52.447Z,934.06
2019-03-15T04:45:52.358Z,934.02
2019-03-15T04:46:52.263Z,934.04
2019-03-15T04:47:52.145Z,934.03
2019-03-15T04:48:52.150Z,934.04
2019-03-15T04:49:51.941Z,934.00
2019-03-15T04:50:51.841Z,934.03
2019-03-15T04:51:51.755Z,933.99
2019-03-15T04:52:51.637Z,934.13
2019-03-15T04:53:51.535Z,933.99
2019-03-15T04:54:51.441Z,934.20
2019-03-15T04:55:51.447Z,934.10
2019-03-15T04:56:51.246Z,934.19
2019-03-15T04:57:51.128Z,934.16
2019-03-15T04:58:51.033Z,934.15
2019-03-15T04:59:50.927Z,934.13
2019-03-15T05:00:50.823Z,934.09
2019-03-15T05:01:50.743Z,934.17
2019-03-15T05:02:50.723Z,934.24
2019-03-15T05:03:50.525Z,934.21
2019-03-15T05:04:50.421Z,934.18
2019-03-15T05:06:02.552Z,934.18
2019-03-15T05:06:50.232Z,934.16
2019-03-15T05:07:50.115Z,934.14
2019-03-15T05:08:50.011Z,934.18
2019-03-15T05:09:50.012Z,934.21
2019-03-15T05:10:49.810Z,934.13
2019-03-15T05:11:49.723Z,934.20
2019-03-15T05:12:49.608Z,934.15
2019-03-15T05:13:49.508Z,934.18
2019-03-15T05:14:49.405Z,934.03
2019-03-15T05:15:49.308Z,934.08
2019-03-15T05:16:49.321Z,934.11
2019-03-15T05:17:49.101Z,934.13
2019-03-15T05:18:49.001Z,934.12
2019-03-15T05:19:48.896Z,934.06
2019-03-15T05:20:48.794Z,934.10
2019-03-15T05:21:48.712Z,934.20
2019-03-15T05:22:48.712Z,934.19
2019-03-15T05:23:48.490Z,934.13
2019-03-15T05:24:48.387Z,934.12
2019-03-15T05:25:48.290Z,934.15
2019-03-15T05:26:48.204Z,934.09
2019-03-15T05:27:48.087Z,934.07
2019-03-15T05:28:47.983Z,934.15
2019-03-15T05:29:47.882Z,934.11
2019-03-15T05:30:47.787Z,933.99
2019-03-15T05:31:47.697Z,934.10
2019-03-15T05:32:47.581Z,934.12
2019-03-15T05:33:47.478Z,934.10
2019-03-15T05:34:47.377Z,934.15
2019-03-15T05:35:47.275Z,934.08
2019-03-15T05:36:47.190Z,934.01
2019-03-15T05:37:47.172Z,934.07
2019-03-15T05:38:46.973Z,934.09
2019-03-15T05:39:46.867Z,933.98
2019-03-15T05:40:46.769Z,934.00
2019-03-15T05:41:46.697Z,934.00
2019-03-15T05:42:46.565Z,934.03
2019-03-15T05:43:46.462Z,934.16
2019-03-15T05:44:46.364Z,934.20
2019-03-15T05:45:46.262Z,934.15
2019-03-15T05:46:46.306Z,934.16
2019-03-15T05:47:46.057Z,934.17
2019-03-15T05:48:45.954Z,934.14
2019-03-15T05:49:45.854Z,934.13
2019-03-15T05:50:45.755Z,934.16
2019-03-15T05:51:45.653Z,934.17
2019-03-15T05:52:45.567Z,934.16
2019-03-15T05:53:45.450Z,934.27
2019-03-15T05:54:45.347Z,934.25
2019-03-15T05:55:45.248Z,934.19
2019-03-15T05:56:45.145Z,934.15
2019-03-15T05:57:45.063Z,934.24
2019-03-15T05:58:44.948Z,934.24
2019-03-15T05:59:44.840Z,934.29
2019-03-15T06:00:44.742Z,934.25
2019-03-15T06:01:44.642Z,934.35
2019-03-15T06:02:44.557Z,934.29
2019-03-15T06:03:48.790Z,934.31
2019-03-15T06:04:44.337Z,934.34
2019-03-15T06:05:44.239Z,934.31
2019-03-15T06:06:44.139Z,934.30
2019-03-15T06:07:44.047Z,934.24
2019-03-15T06:08:43.929Z,934.27
2019-03-15T06:09:43.832Z,934.17
2019-03-15T06:10:44.625Z,934.14
2019-03-15T06:11:43.627Z,934.26
2019-03-15T06:12:43.544Z,934.25
2019-03-15T06:13:43.427Z,934.18
2019-03-15T06:14:46.657Z,934.34
2019-03-15T06:15:43.223Z,934.35
2019-03-15T06:16:43.125Z,934.27
2019-03-15T06:17:43.040Z,934.26
2019-03-15T06:18:42.920Z,934.31
2019-03-15T06:19:42.820Z,934.12
2019-03-15T06:20:42.721Z,934.23
2019-03-15T06:21:42.618Z,934.30
2019-03-15T06:22:42.636Z,934.32
2019-03-15T06:23:42.414Z,934.26
2019-03-15T06:24:42.318Z,934.28
2019-03-15T06:25:42.220Z,934.25
2019-03-15T06:26:42.112Z,934.32
2019-03-15T06:27:42.036Z,934.24
2019-03-15T06:28:41.913Z,934.28
2019-03-15T06:29:41.807Z,934.42
2019-03-15T06:30:41.707Z,934.36
2019-03-15T06:31:41.609Z,934.48
2019-03-15T06:32:41.522Z,934.43
2019-03-15T06:33:41.406Z,934.45
2019-03-15T06:34:41.362Z,934.49
2019-03-15T06:35:41.203Z,934.55
2019-03-15T06:36:41.103Z,934.56
2019-03-15T06:37:41.018Z,934.57
2019-03-15T06:38:40.912Z,934.59
2019-03-15T06:39:40.797Z,934.70
2019-03-15T06:40:40.696Z,934.62
2019-03-15T06:41:40.596Z,934.57
2019-03-15T06:42:40.514Z,934.59
2019-03-15T06:43:40.400Z,934.57
2019-03-15T06:44:40.297Z,934.60
2019-03-15T06:45:41.813Z,934.68
2019-03-15T06:46:40.201Z,934.68
2019-03-15T06:47:40.013Z,934.68
2019-03-15T06:48:39.893Z,934.67
2019-03-15T06:49:39.793Z,934.64
2019-03-15T06:50:39.693Z,934.62
2019-03-15T06:51:39.594Z,934.59
2019-03-15T06:52:39.512Z,934.54
2019-03-15T06:53:39.500Z,934.50
2019-03-15T06:54:39.292Z,934.56
2019-03-15T06:55:39.209Z,934.59
2019-03-15T06:56:39.094Z,934.63
2019-03-15T06:57:39.010Z,934.61
2019-03-15T06:58:38.891Z,934.71
2019-03-15T06:59:38.793Z,934.79
2019-03-15T07:00:38.794Z,934.77
2019-03-15T07:01:38.594Z,934.72
2019-03-15T07:02:38.507Z,934.62
2019-03-15T07:03:38.396Z,934.63
2019-03-15T07:04:38.290Z,934.56
2019-03-15T07:05:38.191Z,934.59
2019-03-15T07:06:38.111Z,934.54
2019-03-15T07:07:38.126Z,934.55
2019-03-15T07:08:37.891Z,934.65
2019-03-15T07:09:38.369Z,934.65
2019-03-15T07:10:37.696Z,934.68
2019-03-15T07:11:37.591Z,934.65
2019-03-15T07:12:40.007Z,934.66
2019-03-15T07:13:37.391Z,934.53
2019-03-15T07:14:37.393Z,934.52
2019-03-15T07:15:37.193Z,934.60
2019-03-15T07:16:38.316Z,934.61
2019-03-15T07:17:37.013Z,934.58
2019-03-15T07:18:36.893Z,934.55
2019-03-15T07:19:36.798Z,934.57
2019-03-15T07:20:36.691Z,934.55
2019-03-15T07:21:36.999Z,934.56
2019-03-15T07:22:36.509Z,934.54
2019-03-15T07:23:36.391Z,934.63
2019-03-15T07:24:36.292Z,934.60
2019-03-15T07:25:36.196Z,934.58
2019-03-15T07:26:36.095Z,934.70
2019-03-15T07:27:36.009Z,934.66
2019-03-15T07:28:35.998Z,934.67
2019-03-15T07:29:35.795Z,934.65
2019-03-15T07:30:35.700Z,934.73
2019-03-15T07:31:35.593Z,934.71
2019-03-15T07:32:35.509Z,934.71
2019-03-15T07:33:35.395Z,934.69
2019-03-15T07:34:35.299Z,934.77
2019-03-15T07:35:35.304Z,934.78
2019-03-15T07:36:37.255Z,934.74
2019-03-15T07:37:34.997Z,934.76
2019-03-15T07:38:34.912Z,934.71
2019-03-15T07:39:34.802Z,934.72
2019-03-15T07:40:34.695Z,934.79
2019-03-15T07:41:34.598Z,934.81
2019-03-15T07:42:34.608Z,934.77
2019-03-15T07:43:34.414Z,934.81
2019-03-15T07:44:34.298Z,934.84
2019-03-15T07:45:34.216Z,934.87
2019-03-15T07:46:34.102Z,934.80
2019-03-15T07:47:34.003Z,934.81
2019-03-15T07:48:33.921Z,934.72
2019-03-15T07:49:33.904Z,934.72
2019-03-15T07:50:33.702Z,934.74
2019-03-15T07:51:33.624Z,934.72
2019-03-15T07:52:33.507Z,934.66
2019-03-15T07:53:35.369Z,934.70
2019-03-15T07:54:37.910Z,934.74
2019-03-15T07:55:33.330Z,934.78
2019-03-15T07:56:33.111Z,934.80
2019-03-15T07:57:33.016Z,934.78
2019-03-15T07:58:33.571Z,934.79
2019-03-15T07:59:32.810Z,934.74
2019-03-15T08:00:32.712Z,934.76
2019-03-15T08:01:32.615Z,934.71
2019-03-15T08:02:32.513Z,934.79
2019-03-15T08:03:32.432Z,934.72
2019-03-15T08:04:32.315Z,934.77
2019-03-15T08:05:32.219Z,934.73
2019-03-15T08:06:35.113Z,934.85
2019-03-15T08:07:36.523Z,934.83
2019-03-15T08:08:32.033Z,934.71
2019-03-15T08:09:31.830Z,934.74
2019-03-15T08:10:31.727Z,934.75
2019-03-15T08:11:31.624Z,934.73
2019-03-15T08:12:31.524Z,934.68
2019-03-15T08:13:31.440Z,934.72
2019-03-15T08:14:31.326Z,934.62
2019-03-15T08:15:31.227Z,934.66
2019-03-15T08:16:34.331Z,934.45
2019-03-15T08:17:31.041Z,934.60
2019-03-15T08:18:30.946Z,934.66
2019-03-15T08:19:30.834Z,934.75
2019-03-15T08:20:30.733Z,934.84
2019-03-15T08:21:30.631Z,934.79
2019-03-15T08:22:30.536Z,934.78
2019-03-15T08:23:30.452Z,934.77
2019-03-15T08:24:30.336Z,934.80
2019-03-15T08:25:30.238Z,934.91
2019-03-15T08:26:30.435Z,934.93
2019-03-15T08:27:30.040Z,934.91
2019-03-15T08:28:29.959Z,934.96
2019-03-15T08:29:29.846Z,934.95
2019-03-15T08:30:29.750Z,935.02
2019-03-15T08:31:29.646Z,935.03
2019-03-15T08:32:29.545Z,934.91
2019-03-15T08:33:29.467Z,934.98
2019-03-15T08:34:29.351Z,934.97
2019-03-15T08:35:29.250Z,934.99
2019-03-15T08:36:29.153Z,934.92
2019-03-15T08:37:29.057Z,934.79
2019-03-15T08:38:28.979Z,934.78
2019-03-15T08:39:28.860Z,934.99
2019-03-15T08:40:28.759Z,934.94
2019-03-15T08:41:28.659Z,934.90
2019-03-15T08:42:28.565Z,934.93
2019-03-15T08:43:28.489Z,934.89
2019-03-15T08:44:28.366Z,934.91
2019-03-15T08:45:28.266Z,934.95
2019-03-15T08:46:28.167Z,934.95
2019-03-15T08:47:28.075Z,934.80
2019-03-15T08:48:27.992Z,934.94
2019-03-15T08:49:27.874Z,934.82
2019-03-15T08:50:27.777Z,934.89
2019-03-15T08:51:27.676Z,934.85
2019-03-15T08:52:27.580Z,934.91
2019-03-15T08:53:27.496Z,934.87
2019-03-15T08:54:27.382Z,934.85
2019-03-15T08:55:27.283Z,934.95
2019-03-15T08:56:27.187Z,934.92
2019-03-15T08:57:27.090Z,934.88
2019-03-15T08:58:27.006Z,934.80
2019-03-15T08:59:27.190Z,935.00
2019-03-15T09:00:26.792Z,934.75
2019-03-15T09:01:26.695Z,934.91
2019-03-15T09:02:26.597Z,934.78
2019-03-15T09:03:28.264Z,934.89
2019-03-15T09:04:26.400Z,934.89
2019-03-15T09:05:26.302Z,934.82
2019-03-15T09:06:26.204Z,934.88
2019-03-15T09:07:26.107Z,934.94
2019-03-15T09:08:26.023Z,934.88
2019-03-15T09:09:25.909Z,934.95
2019-03-15T09:10:25.842Z,934.95
2019-03-15T09:11:25.726Z,934.87
2019-03-15T09:12:25.617Z,934.83
2019-03-15T09:13:25.533Z,934.93
2019-03-15T09:14:25.416Z,934.88
2019-03-15T09:15:25.320Z,934.90
2019-03-15T09:16:25.224Z,934.87
2019-03-15T09:17:25.120Z,934.91
2019-03-15T09:18:25.038Z,934.98
2019-03-15T09:19:24.929Z,934.83
2019-03-15T09:20:29.618Z,934.93
2019-03-15T09:21:24.731Z,934.83
2019-03-15T09:22:24.630Z,934.77
2019-03-15T09:23:24.532Z,934.80
2019-03-15T09:24:24.450Z,934.76
2019-03-15T09:25:24.334Z,934.71
2019-03-15T09:26:24.237Z,934.67
2019-03-15T09:27:24.238Z,934.63
2019-03-15T09:28:24.036Z,934.76
2019-03-15T09:29:23.961Z,934.55
2019-03-15T09:30:24.839Z,934.65
2019-03-15T09:31:23.744Z,934.51
2019-03-15T09:32:23.643Z,934.72
2019-03-15T09:33:23.544Z,934.74
2019-03-15T09:34:23.566Z,934.70
2019-03-15T09:35:23.348Z,934.73
2019-03-15T09:36:23.251Z,934.74
2019-03-15T09:37:23.148Z,934.73
2019-03-15T09:38:23.088Z,934.77
2019-03-15T09:39:22.970Z,934.76
2019-03-15T09:40:25.463Z,934.74
2019-03-15T09:41:32.065Z,934.70
2019-03-15T09:42:22.670Z,934.71
2019-03-15T09:43:22.561Z,934.65
2019-03-15T09:44:22.479Z,934.70
2019-03-15T09:45:22.365Z,934.65
2019-03-15T09:46:22.269Z,934.78
2019-03-15T09:47:22.169Z,934.79
2019-03-15T09:48:22.178Z,934.72
2019-03-15T09:49:21.992Z,934.67
2019-03-15T09:50:33.906Z,934.72
2019-03-15T09:51:21.774Z,934.61
2019-03-15T09:52:21.678Z,934.69
2019-03-15T09:53:21.583Z,934.73
2019-03-15T09:54:21.496Z,934.62
2019-03-15T09:55:32.200Z,934.69
2019-03-15T09:56:21.285Z,934.67
2019-03-15T09:57:21.186Z,934.76
2019-03-15T09:58:21.089Z,934.75
2019-03-15T09:59:22.038Z,934.78
2019-03-15T10:00:20.885Z,934.79
2019-03-15T10:01:34.448Z,934.76
2019-03-15T10:02:30.448Z,934.75
2019-03-15T10:03:22.411Z,934.84
2019-03-15T10:04:20.515Z,934.80
2019-03-15T10:05:20.403Z,934.85
2019-03-15T10:06:20.300Z,934.73
2019-03-15T10:07:20.377Z,934.81
2019-03-15T10:08:23.322Z,934.81
2019-03-15T10:09:20.118Z,934.84
2019-03-15T10:10:19.909Z,934.84
2019-03-15T10:11:19.811Z,934.80
2019-03-15T10:12:19.711Z,934.76
2019-03-15T10:13:19.614Z,934.89
2019-03-15T10:14:19.532Z,934.80
2019-03-15T10:15:19.415Z,934.81
2019-03-15T10:16:19.426Z,934.78
2019-03-15T10:17:19.219Z,934.77
2019-03-15T10:18:19.122Z,934.76
2019-03-15T10:19:19.041Z,934.70
2019-03-15T10:20:18.924Z,934.67
2019-03-15T10:21:18.824Z,934.61
2019-03-15T10:22:18.727Z,934.67
2019-03-15T10:23:18.733Z,934.63
2019-03-15T10:24:18.547Z,934.61
2019-03-15T10:25:18.431Z,934.69
2019-03-15T10:26:18.334Z,934.61
2019-03-15T10:27:18.244Z,934.59
2019-03-15T10:28:18.137Z,934.59
2019-03-15T10:29:19.669Z,934.51
2019-03-15T10:30:18.046Z,934.55
2019-03-15T10:31:17.840Z,934.58
2019-03-15T10:32:17.741Z,934.54
2019-03-15T10:33:17.647Z,934.48
2019-03-15T10:34:17.561Z,934.54
2019-03-15T10:35:17.448Z,934.54
2019-03-15T10:36:17.348Z,934.47
2019-03-15T10:37:17.441Z,934.49
2019-03-15T10:38:17.153Z,934.55
2019-03-15T10:39:17.076Z,934.57
2019-03-15T10:40:16.950Z,934.59
2019-03-15T10:41:16.863Z,934.59
2019-03-15T10:42:16.750Z,934.61
2019-03-15T10:43:16.655Z,934.56
2019-03-15T10:44:16.576Z,934.55
2019-03-15T10:45:16.458Z,934.52
2019-03-15T10:46:16.363Z,934.51
2019-03-15T10:47:16.276Z,934.52
2019-03-15T10:48:25.153Z,934.48
2019-03-15T10:49:16.081Z,934.49
2019-03-15T10:50:16.080Z,934.51
2019-03-15T10:51:15.866Z,934.46
2019-03-15T10:52:15.766Z,934.44
2019-03-15T10:53:15.668Z,934.48
2019-03-15T10:54:15.648Z,934.45
2019-03-15T10:55:15.473Z,934.43
2019-03-15T10:56:15.370Z,934.48
2019-03-15T10:57:15.272Z,934.51
2019-03-15T10:58:15.172Z,934.52
2019-03-15T10:59:15.093Z,934.49
2019-03-15T11:00:14.974Z,934.47
2019-03-15T11:01:14.878Z,934.49
2019-03-15T11:02:14.779Z,934.49
2019-03-15T11:03:14.679Z,934.48
2019-03-15T11:04:14.581Z,934.48
2019-03-15T11:05:14.498Z,934.43
2019-03-15T11:06:14.381Z,934.40
2019-03-15T11:07:14.284Z,934.42
2019-03-15T11:08:14.183Z,934.38
2019-03-15T11:09:14.103Z,934.39
2019-03-15T11:10:13.991Z,934.40
2019-03-15T11:11:13.890Z,934.41
2019-03-15T11:12:13.797Z,934.41
2019-03-15T11:13:13.690Z,934.40
2019-03-15T11:14:13.594Z,934.38
2019-03-15T11:15:13.515Z,934.28
2019-03-15T11:16:13.394Z,934.26
2019-03-15T11:17:13.399Z,934.24
2019-03-15T11:18:13.195Z,934.21
2019-03-15T11:19:15.645Z,934.25
2019-03-15T11:20:13.022Z,934.23
2019-03-15T11:21:12.899Z,934.21
2019-03-15T11:22:12.800Z,934.25
2019-03-15T11:23:12.703Z,934.25
2019-03-15T11:24:12.686Z,934.21
2019-03-15T11:25:12.527Z,934.21
2019-03-15T11:26:13.979Z,934.21
2019-03-15T11:27:12.305Z,934.29
2019-03-15T11:28:12.229Z,934.26
2019-03-15T11:29:12.108Z,934.29
2019-03-15T11:30:12.028Z,934.20
2019-03-15T11:31:12.017Z,934.21
2019-03-15T11:32:11.820Z,934.22
2019-03-15T11:33:11.712Z,934.19
2019-03-15T11:34:11.613Z,934.16
2019-03-15T11:35:11.530Z,934.12
2019-03-15T11:36:11.419Z,934.13
2019-03-15T11:37:11.317Z,934.05
2019-03-15T11:38:11.337Z,934.08
2019-03-15T11:39:11.118Z,934.05
2019-03-15T11:40:13.790Z,934.03
2019-03-15T11:41:10.918Z,933.96
2019-03-15T11:42:10.820Z,934.03
2019-03-15T11:43:10.732Z,934.02
2019-03-15T11:44:10.622Z,934.01
2019-03-15T11:45:10.550Z,934.01
2019-03-15T11:46:10.425Z,934.05
2019-03-15T11:47:10.359Z,934.01
2019-03-15T11:48:10.227Z,934.03
2019-03-15T11:49:10.129Z,934.00
2019-03-15T11:50:10.045Z,934.00
2019-03-15T11:51:09.930Z,933.96
2019-03-15T11:52:09.939Z,933.93
2019-03-15T11:53:09.728Z,933.89
2019-03-15T11:54:09.630Z,933.97
2019-03-15T11:55:09.549Z,933.93
2019-03-15T11:56:09.430Z,933.84
2019-03-15T11:57:09.335Z,933.88
2019-03-15T11:58:09.233Z,933.80
2019-03-15T11:59:09.132Z,933.83
2019-03-15T12:00:09.062Z,933.86
2019-03-15T12:01:08.935Z,933.84
2019-03-15T12:02:10.706Z,933.82
2019-03-15T12:03:08.735Z,933.80
2019-03-15T12:04:08.637Z,933.86
2019-03-15T12:05:08.553Z,933.82
2019-03-15T12:06:08.439Z,933.86
2019-03-15T12:07:10.478Z,933.84
2019-03-15T12:08:08.237Z,933.77
2019-03-15T12:09:08.142Z,933.81
2019-03-15T12:10:08.056Z,933.78
2019-03-15T12:11:07.940Z,933.77
2019-03-15T12:12:07.843Z,933.78
2019-03-15T12:13:07.750Z,933.74
2019-03-15T12:14:07.665Z,933.78
2019-03-15T12:15:07.559Z,933.72
2019-03-15T12:16:07.443Z,933.67
2019-03-15T12:17:07.350Z,933.68
2019-03-15T12:18:08.502Z,933.63
2019-03-15T12:19:07.148Z,933.61
2019-03-15T12:20:07.062Z,933.52
2019-03-15T12:21:06.948Z,933.56
2019-03-15T12:22:06.929Z,933.55
2019-03-15T12:23:06.749Z,933.65
2019-03-15T12:24:06.670Z,933.60
2019-03-15T12:25:06.588Z,933.58
2019-03-15T12:26:06.453Z,933.53
2019-03-15T12:27:06.353Z,933.56